sensor_id;sensor_type;location;lat;lon;timestamp;P1;durP1;ratioP1;P2;durP2;ratioP2
35084;SDS011;21267;51.032;6.998;2024-02-26T00:02:16;1.80;;;0.90;;
35084;SDS011;21267;51.032;6.998;2024-02-26T00:04:44;1.65;;;0.57;;
35084;SDS011;21267;51.032;6.998;2024-02-26T00:07:11;1.23;;;0.70;;
35084;SDS011;21267;51.032;6.998;2024-02-26T00:09:38;2.93;;;1.27;;
35084;SDS011;21267;51.032;6.998;2024-02-26T00:12:04;1.98;;;1.17;;
35084;SDS011;21267;51.032;6.998;2024-02-26T00:14:32;2.88;;;0.73;;
35084;SDS011;21267;51.032;6.998;2024-02-26T00:16:59;1.23;;;0.70;;
35084;SDS011;21267;51.032;6.998;2024-02-26T00:19:26;1.08;;;0.90;;
35084;SDS011;21267;51.032;6.998;2024-02-26T00:21:53;1.07;;;0.93;;
35084;SDS011;21267;51.032;6.998;2024-02-26T00:24:22;1.10;;;0.70;;
35084;SDS011;21267;51.032;6.998;2024-02-26T00:26:49;2.00;;;0.97;;
35084;SDS011;21267;51.032;6.998;2024-02-26T00:29:20;1.33;;;1.02;;
35084;SDS011;21267;51.032;6.998;2024-02-26T00:31:48;1.52;;;1.10;;
35084;SDS011;21267;51.032;6.998;2024-02-26T00:34:15;1.30;;;0.80;;
35084;SDS011;21267;51.032;6.998;2024-02-26T00:36:42;1.77;;;0.70;;
35084;SDS011;21267;51.032;6.998;2024-02-26T00:39:09;2.33;;;0.95;;
35084;SDS011;21267;51.032;6.998;2024-02-26T00:41:38;1.98;;;1.00;;
35084;SDS011;21267;51.032;6.998;2024-02-26T00:44:06;3.63;;;1.50;;
35084;SDS011;21267;51.032;6.998;2024-02-26T00:46:33;1.43;;;0.93;;
35084;SDS011;21267;51.032;6.998;2024-02-26T00:49:00;1.57;;;0.80;;
35084;SDS011;21267;51.032;6.998;2024-02-26T00:51:28;1.08;;;0.60;;
35084;SDS011;21267;51.032;6.998;2024-02-26T00:53:55;0.77;;;0.70;;
35084;SDS011;21267;51.032;6.998;2024-02-26T00:56:22;1.77;;;0.80;;
35084;SDS011;21267;51.032;6.998;2024-02-26T01:01:38;2.22;;;1.40;;
35084;SDS011;21267;51.032;6.998;2024-02-26T01:04:08;1.85;;;1.13;;
35084;SDS011;21267;51.032;6.998;2024-02-26T01:06:35;2.60;;;0.55;;
35084;SDS011;21267;51.032;6.998;2024-02-26T01:09:02;0.90;;;0.47;;
35084;SDS011;21267;51.032;6.998;2024-02-26T01:11:30;0.50;;;0.50;;
35084;SDS011;21267;51.032;6.998;2024-02-26T01:13:57;1.15;;;0.57;;
35084;SDS011;21267;51.032;6.998;2024-02-26T01:16:24;1.52;;;0.60;;
35084;SDS011;21267;51.032;6.998;2024-02-26T01:18:51;1.77;;;0.65;;
35084;SDS011;21267;51.032;6.998;2024-02-26T01:21:18;1.02;;;0.68;;
35084;SDS011;21267;51.032;6.998;2024-02-26T01:23:45;0.63;;;0.43;;
35084;SDS011;21267;51.032;6.998;2024-02-26T01:26:12;1.00;;;0.80;;
35084;SDS011;21267;51.032;6.998;2024-02-26T01:28:39;1.25;;;0.50;;
35084;SDS011;21267;51.032;6.998;2024-02-26T01:31:06;0.63;;;0.40;;
35084;SDS011;21267;51.032;6.998;2024-02-26T01:33:35;1.35;;;0.50;;
35084;SDS011;21267;51.032;6.998;2024-02-26T01:36:03;1.65;;;0.70;;
35084;SDS011;21267;51.032;6.998;2024-02-26T01:38:30;1.77;;;0.88;;
35084;SDS011;21267;51.032;6.998;2024-02-26T01:40:57;2.13;;;0.67;;
35084;SDS011;21267;51.032;6.998;2024-02-26T01:43:24;1.92;;;0.70;;
35084;SDS011;21267;51.032;6.998;2024-02-26T01:45:51;2.30;;;0.85;;
35084;SDS011;21267;51.032;6.998;2024-02-26T01:48:17;1.15;;;0.80;;
35084;SDS011;21267;51.032;6.998;2024-02-26T01:50:45;1.03;;;0.70;;
35084;SDS011;21267;51.032;6.998;2024-02-26T01:53:11;2.70;;;0.60;;
35084;SDS011;21267;51.032;6.998;2024-02-26T01:55:39;1.25;;;0.50;;
35084;SDS011;21267;51.032;6.998;2024-02-26T01:58:06;1.20;;;0.60;;
35084;SDS011;21267;51.032;6.998;2024-02-26T02:00:33;1.13;;;0.65;;
35084;SDS011;21267;51.032;6.998;2024-02-26T02:03:04;0.82;;;0.60;;
35084;SDS011;21267;51.032;6.998;2024-02-26T02:05:31;1.58;;;0.50;;
35084;SDS011;21267;51.032;6.998;2024-02-26T02:07:59;2.50;;;0.85;;
35084;SDS011;21267;51.032;6.998;2024-02-26T02:10:26;1.67;;;0.68;;
35084;SDS011;21267;51.032;6.998;2024-02-26T02:12:54;1.23;;;0.60;;
35084;SDS011;21267;51.032;6.998;2024-02-26T02:15:21;2.38;;;0.50;;
35084;SDS011;21267;51.032;6.998;2024-02-26T02:17:48;0.73;;;0.40;;
35084;SDS011;21267;51.032;6.998;2024-02-26T02:20:16;1.33;;;0.43;;
35084;SDS011;21267;51.032;6.998;2024-02-26T02:22:46;1.35;;;0.68;;
35084;SDS011;21267;51.032;6.998;2024-02-26T02:25:13;0.80;;;0.60;;
35084;SDS011;21267;51.032;6.998;2024-02-26T02:27:41;0.40;;;0.20;;
35084;SDS011;21267;51.032;6.998;2024-02-26T02:30:09;1.48;;;0.60;;
35084;SDS011;21267;51.032;6.998;2024-02-26T02:32:38;2.38;;;0.80;;
35084;SDS011;21267;51.032;6.998;2024-02-26T02:35:08;1.85;;;0.70;;
35084;SDS011;21267;51.032;6.998;2024-02-26T02:37:35;1.00;;;0.53;;
35084;SDS011;21267;51.032;6.998;2024-02-26T02:40:03;0.65;;;0.38;;
35084;SDS011;21267;51.032;6.998;2024-02-26T02:42:31;0.82;;;0.60;;
35084;SDS011;21267;51.032;6.998;2024-02-26T02:44:58;1.33;;;0.60;;
35084;SDS011;21267;51.032;6.998;2024-02-26T02:47:25;0.53;;;0.30;;
35084;SDS011;21267;51.032;6.998;2024-02-26T02:49:52;0.43;;;0.40;;
35084;SDS011;21267;51.032;6.998;2024-02-26T02:52:19;0.60;;;0.30;;
35084;SDS011;21267;51.032;6.998;2024-02-26T02:54:46;1.23;;;0.57;;
35084;SDS011;21267;51.032;6.998;2024-02-26T02:57:13;1.77;;;0.50;;
35084;SDS011;21267;51.032;6.998;2024-02-26T03:03:17;1.52;;;0.63;;
35084;SDS011;21267;51.032;6.998;2024-02-26T03:05:44;1.83;;;1.30;;
35084;SDS011;21267;51.032;6.998;2024-02-26T03:08:11;1.88;;;0.43;;
35084;SDS011;21267;51.032;6.998;2024-02-26T03:10:38;0.65;;;0.63;;
35084;SDS011;21267;51.032;6.998;2024-02-26T03:13:04;1.65;;;0.60;;
35084;SDS011;21267;51.032;6.998;2024-02-26T03:15:31;1.35;;;0.65;;
35084;SDS011;21267;51.032;6.998;2024-02-26T03:17:58;0.95;;;0.75;;
35084;SDS011;21267;51.032;6.998;2024-02-26T03:20:26;0.97;;;0.60;;
35084;SDS011;21267;51.032;6.998;2024-02-26T03:22:52;1.05;;;0.70;;
35084;SDS011;21267;51.032;6.998;2024-02-26T03:25:19;1.75;;;0.50;;
35084;SDS011;21267;51.032;6.998;2024-02-26T03:27:46;1.42;;;0.57;;
35084;SDS011;21267;51.032;6.998;2024-02-26T03:30:13;1.13;;;0.47;;
35084;SDS011;21267;51.032;6.998;2024-02-26T03:32:40;0.60;;;0.57;;
35084;SDS011;21267;51.032;6.998;2024-02-26T03:35:07;0.73;;;0.70;;
35084;SDS011;21267;51.032;6.998;2024-02-26T03:37:34;0.82;;;0.63;;
35084;SDS011;21267;51.032;6.998;2024-02-26T03:40:01;1.00;;;0.90;;
35084;SDS011;21267;51.032;6.998;2024-02-26T03:42:29;1.30;;;0.45;;
35084;SDS011;21267;51.032;6.998;2024-02-26T03:44:57;0.60;;;0.45;;
35084;SDS011;21267;51.032;6.998;2024-02-26T03:47:23;0.73;;;0.32;;
35084;SDS011;21267;51.032;6.998;2024-02-26T03:49:50;1.08;;;0.60;;
35084;SDS011;21267;51.032;6.998;2024-02-26T03:52:17;0.90;;;0.50;;
35084;SDS011;21267;51.032;6.998;2024-02-26T03:54:44;1.05;;;0.50;;
35084;SDS011;21267;51.032;6.998;2024-02-26T03:57:11;1.05;;;0.57;;
35084;SDS011;21267;51.032;6.998;2024-02-26T03:59:38;2.97;;;0.50;;
35084;SDS011;21267;51.032;6.998;2024-02-26T04:04:35;0.80;;;0.50;;
35084;SDS011;21267;51.032;6.998;2024-02-26T04:07:02;0.82;;;0.55;;
35084;SDS011;21267;51.032;6.998;2024-02-26T04:09:31;2.83;;;0.70;;
35084;SDS011;21267;51.032;6.998;2024-02-26T04:11:58;1.42;;;0.47;;
35084;SDS011;21267;51.032;6.998;2024-02-26T04:14:25;0.93;;;0.70;;
35084;SDS011;21267;51.032;6.998;2024-02-26T04:16:52;1.00;;;0.52;;
35084;SDS011;21267;51.032;6.998;2024-02-26T04:19:21;1.23;;;0.70;;
35084;SDS011;21267;51.032;6.998;2024-02-26T04:21:48;0.82;;;0.60;;
35084;SDS011;21267;51.032;6.998;2024-02-26T04:24:15;2.05;;;0.90;;
35084;SDS011;21267;51.032;6.998;2024-02-26T04:26:41;0.90;;;0.70;;
35084;SDS011;21267;51.032;6.998;2024-02-26T04:29:08;0.88;;;0.70;;
35084;SDS011;21267;51.032;6.998;2024-02-26T04:31:37;2.17;;;0.60;;
35084;SDS011;21267;51.032;6.998;2024-02-26T04:34:04;0.90;;;0.70;;
35084;SDS011;21267;51.032;6.998;2024-02-26T04:36:31;0.83;;;0.43;;
35084;SDS011;21267;51.032;6.998;2024-02-26T04:38:57;2.08;;;0.80;;
35084;SDS011;21267;51.032;6.998;2024-02-26T04:41:25;1.55;;;0.90;;
35084;SDS011;21267;51.032;6.998;2024-02-26T04:43:51;2.33;;;0.88;;
35084;SDS011;21267;51.032;6.998;2024-02-26T04:46:18;1.17;;;0.95;;
35084;SDS011;21267;51.032;6.998;2024-02-26T04:48:45;3.55;;;1.05;;
35084;SDS011;21267;51.032;6.998;2024-02-26T04:53:40;1.70;;;1.10;;
35084;SDS011;21267;51.032;6.998;2024-02-26T04:56:06;5.18;;;1.83;;
35084;SDS011;21267;51.032;6.998;2024-02-26T04:58:33;3.10;;;1.23;;
35084;SDS011;21267;51.032;6.998;2024-02-26T05:01:00;1.10;;;1.00;;
35084;SDS011;21267;51.032;6.998;2024-02-26T05:03:27;2.33;;;0.93;;
35084;SDS011;21267;51.032;6.998;2024-02-26T05:05:54;3.13;;;0.65;;
35084;SDS011;21267;51.032;6.998;2024-02-26T05:08:24;2.50;;;1.15;;
35084;SDS011;21267;51.032;6.998;2024-02-26T05:10:50;1.27;;;0.90;;
35084;SDS011;21267;51.032;6.998;2024-02-26T05:13:17;1.30;;;0.80;;
35084;SDS011;21267;51.032;6.998;2024-02-26T05:15:44;1.40;;;0.77;;
35084;SDS011;21267;51.032;6.998;2024-02-26T05:18:13;3.38;;;0.90;;
35084;SDS011;21267;51.032;6.998;2024-02-26T05:20:40;2.35;;;0.90;;
35084;SDS011;21267;51.032;6.998;2024-02-26T05:23:07;3.33;;;1.33;;
35084;SDS011;21267;51.032;6.998;2024-02-26T05:25:33;2.10;;;1.20;;
35084;SDS011;21267;51.032;6.998;2024-02-26T05:28:01;2.47;;;1.00;;
35084;SDS011;21267;51.032;6.998;2024-02-26T05:30:28;1.33;;;1.00;;
35084;SDS011;21267;51.032;6.998;2024-02-26T05:32:55;1.63;;;1.13;;
35084;SDS011;21267;51.032;6.998;2024-02-26T05:35:22;2.38;;;1.10;;
35084;SDS011;21267;51.032;6.998;2024-02-26T05:37:49;4.13;;;1.13;;
35084;SDS011;21267;51.032;6.998;2024-02-26T05:40:16;1.85;;;0.90;;
35084;SDS011;21267;51.032;6.998;2024-02-26T05:42:43;2.10;;;1.43;;
35084;SDS011;21267;51.032;6.998;2024-02-26T05:45:11;2.83;;;1.30;;
35084;SDS011;21267;51.032;6.998;2024-02-26T05:47:38;3.10;;;1.33;;
35084;SDS011;21267;51.032;6.998;2024-02-26T05:50:11;1.98;;;1.23;;
35084;SDS011;21267;51.032;6.998;2024-02-26T05:52:39;3.00;;;1.13;;
35084;SDS011;21267;51.032;6.998;2024-02-26T05:55:06;10.65;;;5.28;;
35084;SDS011;21267;51.032;6.998;2024-02-26T05:57:34;2.90;;;1.58;;
35084;SDS011;21267;51.032;6.998;2024-02-26T06:00:01;2.60;;;1.35;;
35084;SDS011;21267;51.032;6.998;2024-02-26T06:02:30;1.90;;;1.10;;
35084;SDS011;21267;51.032;6.998;2024-02-26T06:04:57;2.80;;;1.58;;
35084;SDS011;21267;51.032;6.998;2024-02-26T06:07:25;2.67;;;1.42;;
35084;SDS011;21267;51.032;6.998;2024-02-26T06:09:52;6.07;;;4.40;;
35084;SDS011;21267;51.032;6.998;2024-02-26T06:12:19;4.00;;;2.87;;
35084;SDS011;21267;51.032;6.998;2024-02-26T06:14:46;1.48;;;0.98;;
35084;SDS011;21267;51.032;6.998;2024-02-26T06:17:13;1.30;;;1.03;;
35084;SDS011;21267;51.032;6.998;2024-02-26T06:19:40;5.18;;;1.30;;
35084;SDS011;21267;51.032;6.998;2024-02-26T06:22:10;2.42;;;1.15;;
35084;SDS011;21267;51.032;6.998;2024-02-26T06:24:38;2.45;;;1.42;;
35084;SDS011;21267;51.032;6.998;2024-02-26T06:27:05;3.53;;;1.40;;
35084;SDS011;21267;51.032;6.998;2024-02-26T06:29:32;3.47;;;1.70;;
35084;SDS011;21267;51.032;6.998;2024-02-26T06:31:59;3.72;;;1.60;;
35084;SDS011;21267;51.032;6.998;2024-02-26T06:34:26;4.25;;;1.70;;
35084;SDS011;21267;51.032;6.998;2024-02-26T06:36:53;2.80;;;1.90;;
35084;SDS011;21267;51.032;6.998;2024-02-26T06:39:20;4.13;;;2.10;;
35084;SDS011;21267;51.032;6.998;2024-02-26T06:41:47;2.60;;;2.00;;
35084;SDS011;21267;51.032;6.998;2024-02-26T06:44:14;5.20;;;2.00;;
35084;SDS011;21267;51.032;6.998;2024-02-26T06:46:41;2.27;;;1.63;;
35084;SDS011;21267;51.032;6.998;2024-02-26T06:49:07;1.67;;;1.58;;
35084;SDS011;21267;51.032;6.998;2024-02-26T06:51:35;3.67;;;2.00;;
35084;SDS011;21267;51.032;6.998;2024-02-26T06:54:01;5.85;;;2.97;;
35084;SDS011;21267;51.032;6.998;2024-02-26T06:56:28;2.47;;;1.70;;
35084;SDS011;21267;51.032;6.998;2024-02-26T06:58:58;3.67;;;1.70;;
35084;SDS011;21267;51.032;6.998;2024-02-26T07:01:25;2.40;;;1.42;;
35084;SDS011;21267;51.032;6.998;2024-02-26T07:03:52;3.73;;;2.00;;
35084;SDS011;21267;51.032;6.998;2024-02-26T07:06:18;2.65;;;1.63;;
35084;SDS011;21267;51.032;6.998;2024-02-26T07:08:46;2.47;;;1.83;;
35084;SDS011;21267;51.032;6.998;2024-02-26T07:11:12;6.78;;;2.00;;
35084;SDS011;21267;51.032;6.998;2024-02-26T07:13:40;2.00;;;1.45;;
35084;SDS011;21267;51.032;6.998;2024-02-26T07:16:08;3.58;;;2.08;;
35084;SDS011;21267;51.032;6.998;2024-02-26T07:18:36;3.00;;;1.70;;
35084;SDS011;21267;51.032;6.998;2024-02-26T07:21:04;3.85;;;2.10;;
35084;SDS011;21267;51.032;6.998;2024-02-26T07:23:31;1.45;;;1.25;;
35084;SDS011;21267;51.032;6.998;2024-02-26T07:25:58;3.17;;;1.80;;
35084;SDS011;21267;51.032;6.998;2024-02-26T07:28:25;3.63;;;2.58;;
35084;SDS011;21267;51.032;6.998;2024-02-26T07:33:38;2.10;;;1.65;;
35084;SDS011;21267;51.032;6.998;2024-02-26T07:36:05;3.37;;;1.60;;
35084;SDS011;21267;51.032;6.998;2024-02-26T07:38:32;3.13;;;2.13;;
35084;SDS011;21267;51.032;6.998;2024-02-26T07:41:09;3.38;;;1.92;;
35084;SDS011;21267;51.032;6.998;2024-02-26T07:43:36;5.83;;;1.60;;
35084;SDS011;21267;51.032;6.998;2024-02-26T07:46:02;2.47;;;1.45;;
35084;SDS011;21267;51.032;6.998;2024-02-26T07:48:29;4.50;;;1.87;;
35084;SDS011;21267;51.032;6.998;2024-02-26T07:50:57;16.40;;;9.00;;
35084;SDS011;21267;51.032;6.998;2024-02-26T07:53:26;3.92;;;1.33;;
35084;SDS011;21267;51.032;6.998;2024-02-26T07:55:52;5.75;;;1.50;;
35084;SDS011;21267;51.032;6.998;2024-02-26T07:58:19;3.08;;;1.75;;
35084;SDS011;21267;51.032;6.998;2024-02-26T08:00:46;4.38;;;1.27;;
35084;SDS011;21267;51.032;6.998;2024-02-26T08:03:13;2.70;;;1.80;;
35084;SDS011;21267;51.032;6.998;2024-02-26T08:05:42;2.35;;;1.60;;
35084;SDS011;21267;51.032;6.998;2024-02-26T08:08:10;2.72;;;1.73;;
35084;SDS011;21267;51.032;6.998;2024-02-26T08:10:37;3.25;;;1.90;;
35084;SDS011;21267;51.032;6.998;2024-02-26T08:13:03;2.42;;;1.70;;
35084;SDS011;21267;51.032;6.998;2024-02-26T08:15:33;2.08;;;1.70;;
35084;SDS011;21267;51.032;6.998;2024-02-26T08:20:32;2.78;;;1.10;;
35084;SDS011;21267;51.032;6.998;2024-02-26T08:22:58;3.00;;;1.57;;
35084;SDS011;21267;51.032;6.998;2024-02-26T08:25:25;2.80;;;1.95;;
35084;SDS011;21267;51.032;6.998;2024-02-26T08:27:53;3.95;;;1.92;;
35084;SDS011;21267;51.032;6.998;2024-02-26T08:30:19;2.72;;;1.30;;
35084;SDS011;21267;51.032;6.998;2024-02-26T08:32:47;3.67;;;1.75;;
35084;SDS011;21267;51.032;6.998;2024-02-26T08:35:17;1.98;;;1.55;;
35084;SDS011;21267;51.032;6.998;2024-02-26T08:37:45;3.15;;;1.92;;
35084;SDS011;21267;51.032;6.998;2024-02-26T08:40:13;3.95;;;1.60;;
35084;SDS011;21267;51.032;6.998;2024-02-26T08:42:40;4.35;;;3.50;;
35084;SDS011;21267;51.032;6.998;2024-02-26T08:45:07;3.57;;;2.47;;
35084;SDS011;21267;51.032;6.998;2024-02-26T08:50:02;3.40;;;1.57;;
35084;SDS011;21267;51.032;6.998;2024-02-26T08:52:30;5.85;;;2.67;;
35084;SDS011;21267;51.032;6.998;2024-02-26T08:54:56;3.58;;;1.48;;
35084;SDS011;21267;51.032;6.998;2024-02-26T08:57:23;2.17;;;1.50;;
35084;SDS011;21267;51.032;6.998;2024-02-26T08:59:54;2.58;;;2.00;;
35084;SDS011;21267;51.032;6.998;2024-02-26T09:02:21;2.88;;;1.30;;
35084;SDS011;21267;51.032;6.998;2024-02-26T09:04:47;5.72;;;1.73;;
35084;SDS011;21267;51.032;6.998;2024-02-26T09:07:14;4.27;;;2.10;;
35084;SDS011;21267;51.032;6.998;2024-02-26T09:09:41;4.32;;;2.03;;
35084;SDS011;21267;51.032;6.998;2024-02-26T09:12:08;3.95;;;2.13;;
35084;SDS011;21267;51.032;6.998;2024-02-26T09:14:35;6.07;;;2.93;;
35084;SDS011;21267;51.032;6.998;2024-02-26T09:17:02;3.73;;;1.60;;
35084;SDS011;21267;51.032;6.998;2024-02-26T09:19:30;5.38;;;1.63;;
35084;SDS011;21267;51.032;6.998;2024-02-26T09:21:57;4.50;;;1.60;;
35084;SDS011;21267;51.032;6.998;2024-02-26T09:24:24;6.78;;;1.20;;
35084;SDS011;21267;51.032;6.998;2024-02-26T09:26:53;3.50;;;2.00;;
35084;SDS011;21267;51.032;6.998;2024-02-26T09:29:20;4.40;;;1.73;;
35084;SDS011;21267;51.032;6.998;2024-02-26T09:31:47;2.88;;;1.77;;
35084;SDS011;21267;51.032;6.998;2024-02-26T09:34:14;3.40;;;1.80;;
35084;SDS011;21267;51.032;6.998;2024-02-26T09:36:41;3.23;;;2.03;;
35084;SDS011;21267;51.032;6.998;2024-02-26T09:39:08;2.70;;;1.47;;
35084;SDS011;21267;51.032;6.998;2024-02-26T09:41:38;1.60;;;1.02;;
35084;SDS011;21267;51.032;6.998;2024-02-26T09:44:05;5.93;;;1.70;;
35084;SDS011;21267;51.032;6.998;2024-02-26T09:46:33;1.75;;;1.60;;
35084;SDS011;21267;51.032;6.998;2024-02-26T09:49:00;5.47;;;1.92;;
35084;SDS011;21267;51.032;6.998;2024-02-26T09:51:28;4.00;;;1.60;;
35084;SDS011;21267;51.032;6.998;2024-02-26T09:53:56;5.50;;;1.80;;
35084;SDS011;21267;51.032;6.998;2024-02-26T09:56:28;3.00;;;1.63;;
35084;SDS011;21267;51.032;6.998;2024-02-26T09:58:56;3.67;;;2.28;;
35084;SDS011;21267;51.032;6.998;2024-02-26T10:01:24;2.60;;;2.25;;
35084;SDS011;21267;51.032;6.998;2024-02-26T10:03:54;4.75;;;2.58;;
35084;SDS011;21267;51.032;6.998;2024-02-26T10:06:24;6.45;;;2.10;;
35084;SDS011;21267;51.032;6.998;2024-02-26T10:08:55;3.72;;;2.40;;
35084;SDS011;21267;51.032;6.998;2024-02-26T10:11:25;3.65;;;2.30;;
35084;SDS011;21267;51.032;6.998;2024-02-26T10:13:54;3.85;;;2.20;;
35084;SDS011;21267;51.032;6.998;2024-02-26T10:16:20;3.13;;;2.22;;
35084;SDS011;21267;51.032;6.998;2024-02-26T10:21:18;4.90;;;2.53;;
35084;SDS011;21267;51.032;6.998;2024-02-26T10:23:46;10.57;;;3.53;;
35084;SDS011;21267;51.032;6.998;2024-02-26T10:26:17;5.97;;;2.45;;
35084;SDS011;21267;51.032;6.998;2024-02-26T10:28:44;5.40;;;3.60;;
35084;SDS011;21267;51.032;6.998;2024-02-26T10:31:14;5.88;;;2.60;;
35084;SDS011;21267;51.032;6.998;2024-02-26T10:33:41;6.30;;;2.27;;
35084;SDS011;21267;51.032;6.998;2024-02-26T10:36:10;3.55;;;1.23;;
35084;SDS011;21267;51.032;6.998;2024-02-26T10:38:37;5.10;;;2.17;;
35084;SDS011;21267;51.032;6.998;2024-02-26T10:41:05;3.15;;;2.03;;
35084;SDS011;21267;51.032;6.998;2024-02-26T10:43:32;4.65;;;2.25;;
35084;SDS011;21267;51.032;6.998;2024-02-26T10:45:59;5.43;;;3.20;;
35084;SDS011;21267;51.032;6.998;2024-02-26T10:48:26;4.27;;;2.90;;
35084;SDS011;21267;51.032;6.998;2024-02-26T10:50:54;6.13;;;2.77;;
35084;SDS011;21267;51.032;6.998;2024-02-26T10:53:22;7.05;;;2.80;;
35084;SDS011;21267;51.032;6.998;2024-02-26T10:55:57;4.65;;;2.88;;
35084;SDS011;21267;51.032;6.998;2024-02-26T10:58:28;5.53;;;2.60;;
35084;SDS011;21267;51.032;6.998;2024-02-26T11:00:56;3.95;;;2.78;;
35084;SDS011;21267;51.032;6.998;2024-02-26T11:03:24;2.85;;;2.40;;
35084;SDS011;21267;51.032;6.998;2024-02-26T11:05:52;3.42;;;2.35;;
35084;SDS011;21267;51.032;6.998;2024-02-26T11:10:52;5.32;;;2.38;;
35084;SDS011;21267;51.032;6.998;2024-02-26T11:13:21;5.15;;;2.60;;
35084;SDS011;21267;51.032;6.998;2024-02-26T11:15:52;6.75;;;3.20;;
35084;SDS011;21267;51.032;6.998;2024-02-26T11:18:21;25.67;;;10.15;;
35084;SDS011;21267;51.032;6.998;2024-02-26T11:20:50;5.53;;;3.08;;
35084;SDS011;21267;51.032;6.998;2024-02-26T11:23:18;5.18;;;2.40;;
35084;SDS011;21267;51.032;6.998;2024-02-26T11:25:45;4.32;;;2.53;;
35084;SDS011;21267;51.032;6.998;2024-02-26T11:28:14;4.57;;;2.00;;
35084;SDS011;21267;51.032;6.998;2024-02-26T11:30:45;6.07;;;2.10;;
35084;SDS011;21267;51.032;6.998;2024-02-26T11:33:14;3.15;;;2.33;;
35084;SDS011;21267;51.032;6.998;2024-02-26T11:35:42;3.22;;;2.33;;
35084;SDS011;21267;51.032;6.998;2024-02-26T11:40:44;3.78;;;2.45;;
35084;SDS011;21267;51.032;6.998;2024-02-26T11:43:12;4.53;;;3.17;;
35084;SDS011;21267;51.032;6.998;2024-02-26T11:48:15;5.10;;;2.88;;
35084;SDS011;21267;51.032;6.998;2024-02-26T11:50:48;3.08;;;2.08;;
35084;SDS011;21267;51.032;6.998;2024-02-26T12:01:38;2.95;;;2.35;;
35084;SDS011;21267;51.032;6.998;2024-02-26T12:04:12;23.10;;;14.00;;
35084;SDS011;21267;51.032;6.998;2024-02-26T12:06:50;3.95;;;2.97;;
35084;SDS011;21267;51.032;6.998;2024-02-26T12:12:05;4.60;;;3.00;;
35084;SDS011;21267;51.032;6.998;2024-02-26T12:14:50;4.53;;;2.67;;
35084;SDS011;21267;51.032;6.998;2024-02-26T12:17:23;4.32;;;2.50;;
35084;SDS011;21267;51.032;6.998;2024-02-26T12:19:54;5.38;;;3.00;;
35084;SDS011;21267;51.032;6.998;2024-02-26T12:22:22;7.20;;;3.47;;
35084;SDS011;21267;51.032;6.998;2024-02-26T12:25:00;5.40;;;4.25;;
35084;SDS011;21267;51.032;6.998;2024-02-26T12:27:30;6.18;;;2.58;;
35084;SDS011;21267;51.032;6.998;2024-02-26T12:29:57;3.80;;;2.40;;
35084;SDS011;21267;51.032;6.998;2024-02-26T12:32:24;5.07;;;2.53;;
35084;SDS011;21267;51.032;6.998;2024-02-26T12:34:51;4.22;;;2.60;;
35084;SDS011;21267;51.032;6.998;2024-02-26T12:37:18;4.28;;;2.85;;
35084;SDS011;21267;51.032;6.998;2024-02-26T12:39:45;3.30;;;2.55;;
35084;SDS011;21267;51.032;6.998;2024-02-26T12:42:12;4.05;;;2.80;;
35084;SDS011;21267;51.032;6.998;2024-02-26T12:44:41;6.75;;;2.28;;
35084;SDS011;21267;51.032;6.998;2024-02-26T12:47:08;3.97;;;3.00;;
35084;SDS011;21267;51.032;6.998;2024-02-26T12:49:37;4.05;;;2.63;;
35084;SDS011;21267;51.032;6.998;2024-02-26T12:52:04;3.27;;;2.93;;
35084;SDS011;21267;51.032;6.998;2024-02-26T12:54:31;3.55;;;2.70;;
35084;SDS011;21267;51.032;6.998;2024-02-26T12:57:01;4.05;;;2.58;;
35084;SDS011;21267;51.032;6.998;2024-02-26T12:59:30;4.38;;;2.80;;
35084;SDS011;21267;51.032;6.998;2024-02-26T13:01:58;3.90;;;2.78;;
35084;SDS011;21267;51.032;6.998;2024-02-26T13:04:26;6.30;;;3.45;;
35084;SDS011;21267;51.032;6.998;2024-02-26T13:06:56;8.68;;;4.50;;
35084;SDS011;21267;51.032;6.998;2024-02-26T13:09:33;5.90;;;4.40;;
35084;SDS011;21267;51.032;6.998;2024-02-26T13:12:05;4.97;;;3.22;;
35084;SDS011;21267;51.032;6.998;2024-02-26T13:14:32;5.53;;;3.28;;
35084;SDS011;21267;51.032;6.998;2024-02-26T13:17:03;8.15;;;4.70;;
35084;SDS011;21267;51.032;6.998;2024-02-26T13:19:30;6.53;;;4.05;;
35084;SDS011;21267;51.032;6.998;2024-02-26T13:22:04;4.37;;;3.10;;
35084;SDS011;21267;51.032;6.998;2024-02-26T13:24:33;5.30;;;3.90;;
35084;SDS011;21267;51.032;6.998;2024-02-26T13:27:01;5.50;;;3.13;;
35084;SDS011;21267;51.032;6.998;2024-02-26T13:29:31;7.28;;;4.38;;
35084;SDS011;21267;51.032;6.998;2024-02-26T13:32:00;7.07;;;4.30;;
35084;SDS011;21267;51.032;6.998;2024-02-26T13:34:27;6.40;;;4.18;;
35084;SDS011;21267;51.032;6.998;2024-02-26T13:36:57;7.57;;;4.88;;
35084;SDS011;21267;51.032;6.998;2024-02-26T13:39:25;7.03;;;4.80;;
35084;SDS011;21267;51.032;6.998;2024-02-26T13:41:53;9.15;;;5.32;;
35084;SDS011;21267;51.032;6.998;2024-02-26T13:44:21;6.35;;;4.72;;
35084;SDS011;21267;51.032;6.998;2024-02-26T13:46:49;7.97;;;5.30;;
35084;SDS011;21267;51.032;6.998;2024-02-26T13:49:16;10.27;;;5.87;;
35084;SDS011;21267;51.032;6.998;2024-02-26T13:51:44;8.87;;;5.00;;
35084;SDS011;21267;51.032;6.998;2024-02-26T13:54:10;8.70;;;5.28;;
35084;SDS011;21267;51.032;6.998;2024-02-26T13:56:37;6.67;;;5.20;;
35084;SDS011;21267;51.032;6.998;2024-02-26T13:59:04;6.83;;;4.30;;
35084;SDS011;21267;51.032;6.998;2024-02-26T14:01:32;6.03;;;4.80;;
35084;SDS011;21267;51.032;6.998;2024-02-26T14:06:29;6.80;;;6.10;;
35084;SDS011;21267;51.032;6.998;2024-02-26T14:08:58;6.97;;;5.50;;
35084;SDS011;21267;51.032;6.998;2024-02-26T14:11:25;7.22;;;5.25;;
35084;SDS011;21267;51.032;6.998;2024-02-26T14:13:53;7.67;;;5.20;;
35084;SDS011;21267;51.032;6.998;2024-02-26T14:16:19;8.40;;;6.40;;
35084;SDS011;21267;51.032;6.998;2024-02-26T14:18:46;9.50;;;6.77;;
35084;SDS011;21267;51.032;6.998;2024-02-26T14:21:14;8.68;;;6.70;;
35084;SDS011;21267;51.032;6.998;2024-02-26T14:23:41;9.13;;;6.67;;
35084;SDS011;21267;51.032;6.998;2024-02-26T14:26:11;9.80;;;7.22;;
35084;SDS011;21267;51.032;6.998;2024-02-26T14:28:38;9.95;;;6.97;;
35084;SDS011;21267;51.032;6.998;2024-02-26T14:31:05;9.40;;;7.63;;
35084;SDS011;21267;51.032;6.998;2024-02-26T14:33:33;9.13;;;7.15;;
35084;SDS011;21267;51.032;6.998;2024-02-26T14:36:01;8.40;;;6.33;;
35084;SDS011;21267;51.032;6.998;2024-02-26T14:38:28;9.77;;;6.32;;
35084;SDS011;21267;51.032;6.998;2024-02-26T14:40:55;10.60;;;7.88;;
35084;SDS011;21267;51.032;6.998;2024-02-26T14:43:22;9.52;;;7.78;;
35084;SDS011;21267;51.032;6.998;2024-02-26T14:45:48;11.32;;;7.82;;
35084;SDS011;21267;51.032;6.998;2024-02-26T14:48:15;10.43;;;7.90;;
35084;SDS011;21267;51.032;6.998;2024-02-26T14:50:42;10.90;;;7.80;;
35084;SDS011;21267;51.032;6.998;2024-02-26T14:53:09;11.52;;;7.95;;
35084;SDS011;21267;51.032;6.998;2024-02-26T14:55:36;11.70;;;8.45;;
35084;SDS011;21267;51.032;6.998;2024-02-26T14:58:07;12.60;;;9.18;;
35084;SDS011;21267;51.032;6.998;2024-02-26T15:00:33;10.88;;;8.02;;
35084;SDS011;21267;51.032;6.998;2024-02-26T15:03:02;12.23;;;8.80;;
35084;SDS011;21267;51.032;6.998;2024-02-26T15:05:29;11.85;;;9.15;;
35084;SDS011;21267;51.032;6.998;2024-02-26T15:07:56;11.93;;;9.35;;
35084;SDS011;21267;51.032;6.998;2024-02-26T15:10:23;13.17;;;8.77;;
35084;SDS011;21267;51.032;6.998;2024-02-26T15:12:49;12.20;;;9.25;;
35084;SDS011;21267;51.032;6.998;2024-02-26T15:15:21;15.10;;;10.65;;
35084;SDS011;21267;51.032;6.998;2024-02-26T15:17:48;18.10;;;12.40;;
35084;SDS011;21267;51.032;6.998;2024-02-26T15:20:16;12.73;;;10.77;;
35084;SDS011;21267;51.032;6.998;2024-02-26T15:22:42;14.18;;;10.77;;
35084;SDS011;21267;51.032;6.998;2024-02-26T15:25:09;12.90;;;9.65;;
35084;SDS011;21267;51.032;6.998;2024-02-26T15:27:40;14.57;;;9.82;;
35084;SDS011;21267;51.032;6.998;2024-02-26T15:30:07;11.55;;;10.18;;
35084;SDS011;21267;51.032;6.998;2024-02-26T15:32:35;13.93;;;10.73;;